createdAt,value
2022-08-23T00:01:32.170Z,1.83
2022-08-23T00:04:02.102Z,1.83
2022-08-23T00:06:30.850Z,2.00
2022-08-23T00:08:59.034Z,2.23
2022-08-23T00:11:37.005Z,2.07
2022-08-23T00:14:08.573Z,1.90
2022-08-23T00:16:37.038Z,2.17
2022-08-23T00:19:07.398Z,2.07
2022-08-23T00:21:36.475Z,2.50
2022-08-23T00:24:06.945Z,2.00
2022-08-23T00:26:53.650Z,2.23
2022-08-23T00:29:22.402Z,2.00
2022-08-23T00:31:58.966Z,1.90
2022-08-23T00:34:30.745Z,2.13
2022-08-23T00:36:58.801Z,2.23
2022-08-23T00:39:26.842Z,2.40
2022-08-23T00:42:00.114Z,2.30
2022-08-23T00:44:51.050Z,2.60
2022-08-23T00:47:36.966Z,2.40
2022-08-23T00:50:23.483Z,2.20
2022-08-23T00:52:59.549Z,2.20
2022-08-23T00:55:28.702Z,1.80
2022-08-23T00:57:59.082Z,2.17
2022-08-23T01:00:28.070Z,2.47
2022-08-23T01:02:57.121Z,2.30
2022-08-23T01:05:37.663Z,2.00
2022-08-23T01:08:05.737Z,2.10
2022-08-23T01:10:42.401Z,2.27
2022-08-23T01:13:16.137Z,2.50
2022-08-23T01:15:48.221Z,2.40
2022-08-23T01:18:20.205Z,2.20
2022-08-23T01:20:54.561Z,2.50
2022-08-23T01:23:30.773Z,2.57
2022-08-23T01:25:59.441Z,2.20
2022-08-23T01:28:27.572Z,2.10
2022-08-23T01:30:55.709Z,2.33
2022-08-23T01:33:23.773Z,2.63
2022-08-23T01:35:55.227Z,2.37
2022-08-23T01:38:23.577Z,2.30
2022-08-23T01:40:53.409Z,2.47
2022-08-23T01:43:22.417Z,2.37
2022-08-23T01:45:52.181Z,2.60
2022-08-23T01:48:20.989Z,2.53
2022-08-23T01:50:49.197Z,2.30
2022-08-23T01:53:17.500Z,2.10
2022-08-23T01:55:45.716Z,2.13
2022-08-23T01:58:15.241Z,2.30
2022-08-23T02:00:44.484Z,2.20
2022-08-23T02:03:13.546Z,2.33
2022-08-23T02:05:43.115Z,2.60
2022-08-23T02:08:29.101Z,2.30
2022-08-23T02:10:57.225Z,2.40
2022-08-23T02:13:27.096Z,2.30
2022-08-23T02:15:55.163Z,2.30
2022-08-23T02:18:24.162Z,2.17
2022-08-23T02:20:54.339Z,2.60
2022-08-23T02:23:23.530Z,2.30
2022-08-23T02:25:52.500Z,2.53
2022-08-23T02:28:20.840Z,2.20
2022-08-23T02:30:50.904Z,2.30
2022-08-23T02:33:20.984Z,2.03
2022-08-23T02:35:49.048Z,2.33
2022-08-23T02:38:18.156Z,2.57
2022-08-23T02:40:46.260Z,2.30
2022-08-23T02:43:14.232Z,2.50
2022-08-23T02:45:42.720Z,2.47
2022-08-23T02:48:12.112Z,2.40
2022-08-23T02:50:40.149Z,2.40
2022-08-23T02:53:08.494Z,2.53
2022-08-23T02:55:36.528Z,2.27
2022-08-23T02:58:05.490Z,2.30
2022-08-23T03:00:33.878Z,2.37
2022-08-23T03:03:01.825Z,2.50
2022-08-23T03:05:31.396Z,2.80
2022-08-23T03:07:59.821Z,2.53
2022-08-23T03:10:28.232Z,2.67
2022-08-23T03:12:56.551Z,2.60
2022-08-23T03:15:24.701Z,2.70
2022-08-23T03:17:52.687Z,2.37
2022-08-23T03:20:21.080Z,2.90
2022-08-23T03:22:54.725Z,2.63
2022-08-23T03:25:23.383Z,2.50
2022-08-23T03:27:51.452Z,2.60
2022-08-23T03:30:20.162Z,2.90
2022-08-23T03:32:48.881Z,2.70
2022-08-23T03:35:17.587Z,2.50
2022-08-23T03:37:45.632Z,2.53
2022-08-23T03:40:15.248Z,2.50
2022-08-23T03:42:43.267Z,2.40
2022-08-23T03:45:11.959Z,2.23
2022-08-23T03:47:40.099Z,2.57
2022-08-23T03:50:08.915Z,2.60
2022-08-23T03:52:36.934Z,2.50
2022-08-23T03:55:05.334Z,2.73
2022-08-23T03:57:35.028Z,2.73
2022-08-23T04:00:03.114Z,2.50
2022-08-23T04:02:31.202Z,2.60
2022-08-23T04:04:59.441Z,2.43
2022-08-23T04:07:27.586Z,2.90
2022-08-23T04:09:55.685Z,2.90
2022-08-23T04:12:23.874Z,2.43
2022-08-23T04:14:53.731Z,2.70
2022-08-23T04:17:21.785Z,2.30
2022-08-23T04:19:50.578Z,2.87
2022-08-23T04:22:20.309Z,2.47
2022-08-23T04:24:49.145Z,2.67
2022-08-23T04:27:17.926Z,2.70
2022-08-23T04:29:46.169Z,2.63
2022-08-23T04:32:25.977Z,2.77
2022-08-23T04:34:56.397Z,2.97
2022-08-23T04:37:24.541Z,2.70
2022-08-23T04:40:10.016Z,3.13
2022-08-23T04:42:38.131Z,2.87
2022-08-23T04:45:06.918Z,2.60
2022-08-23T04:47:39.225Z,2.87
2022-08-23T04:50:08.269Z,2.80
2022-08-23T04:52:36.249Z,2.90
2022-08-23T04:55:04.649Z,3.20
2022-08-23T04:57:32.633Z,2.97
2022-08-23T05:00:00.640Z,3.10
2022-08-23T05:02:28.757Z,2.93
2022-08-23T05:04:58.156Z,3.30
2022-08-23T05:07:41.897Z,3.20
2022-08-23T05:10:17.782Z,3.23
2022-08-23T05:12:45.952Z,3.33
2022-08-23T05:15:14.668Z,3.50
2022-08-23T05:17:42.713Z,3.07
2022-08-23T05:20:12.661Z,3.50
2022-08-23T05:22:42.536Z,3.43
2022-08-23T05:25:11.121Z,3.10
2022-08-23T05:27:39.846Z,3.57
2022-08-23T05:30:09.053Z,3.60
2022-08-23T05:32:43.720Z,3.77
2022-08-23T05:35:13.106Z,3.83
2022-08-23T05:37:41.289Z,4.30
2022-08-23T05:40:11.041Z,4.30
2022-08-23T05:42:39.372Z,4.27
2022-08-23T05:45:09.623Z,3.97
2022-08-23T05:47:37.607Z,4.37
2022-08-23T05:50:06.140Z,4.50
2022-08-23T05:52:35.539Z,4.63
2022-08-23T05:55:03.627Z,5.17
2022-08-23T05:57:31.771Z,4.90
2022-08-23T05:59:59.949Z,4.53
2022-08-23T06:02:28.041Z,5.70
2022-08-23T06:04:57.546Z,5.47
2022-08-23T06:07:25.679Z,4.83
2022-08-23T06:09:55.476Z,5.07
2022-08-23T06:12:23.767Z,5.23
2022-08-23T06:14:51.852Z,5.40
2022-08-23T06:17:20.771Z,4.93
2022-08-23T06:19:48.783Z,5.20
2022-08-23T06:22:16.955Z,4.97
2022-08-23T06:24:45.054Z,5.43
2022-08-23T06:27:15.222Z,6.05
2022-08-23T06:29:43.678Z,5.67
2022-08-23T06:32:11.686Z,6.50
2022-08-23T06:34:40.015Z,5.80
2022-08-23T06:37:11.862Z,6.27
2022-08-23T06:39:40.255Z,6.18
2022-08-23T06:42:34.873Z,6.35
2022-08-23T06:45:00.758Z,6.03
2022-08-23T06:47:28.870Z,6.90
2022-08-23T06:49:58.396Z,6.38
2022-08-23T06:52:27.296Z,6.50
2022-08-23T06:54:55.518Z,6.97
2022-08-23T06:57:25.863Z,6.80
2022-08-23T06:59:53.826Z,6.05
2022-08-23T07:02:23.308Z,7.05
2022-08-23T07:04:54.126Z,6.93
2022-08-23T07:07:22.377Z,6.47
2022-08-23T07:09:50.450Z,6.85
2022-08-23T07:12:19.883Z,6.53
2022-08-23T07:14:48.066Z,7.30
2022-08-23T07:17:16.847Z,7.35
2022-08-23T07:19:46.213Z,7.40
2022-08-23T07:22:15.717Z,7.20
2022-08-23T07:24:44.063Z,7.03
2022-08-23T07:27:12.761Z,6.50
2022-08-23T07:29:40.917Z,6.75
2022-08-23T07:32:09.810Z,6.72
2022-08-23T07:34:38.013Z,6.70
2022-08-23T07:37:15.250Z,6.95
2022-08-23T07:39:44.051Z,6.72
2022-08-23T07:42:23.541Z,6.95
2022-08-23T07:44:53.111Z,6.53
2022-08-23T07:47:21.786Z,6.82
2022-08-23T07:49:49.950Z,6.45
2022-08-23T07:52:19.296Z,6.25
2022-08-23T07:54:48.296Z,7.00
2022-08-23T07:57:17.625Z,6.60
2022-08-23T07:59:45.972Z,6.32
2022-08-23T08:02:14.086Z,6.40
2022-08-23T08:04:42.225Z,6.22
2022-08-23T08:07:19.303Z,7.00
2022-08-23T08:09:50.145Z,6.70
2022-08-23T08:12:18.316Z,7.60
2022-08-23T08:14:48.240Z,8.43
2022-08-23T08:17:17.160Z,7.05
2022-08-23T08:19:45.248Z,8.10
2022-08-23T08:22:13.561Z,7.82
2022-08-23T08:24:41.848Z,7.95
2022-08-23T08:27:11.276Z,8.40
2022-08-23T08:29:39.299Z,8.57
2022-08-23T08:32:08.941Z,7.88
2022-08-23T08:34:42.347Z,8.18
2022-08-23T08:37:10.492Z,9.73
2022-08-23T08:39:45.459Z,9.93
2022-08-23T08:42:34.572Z,9.85
2022-08-23T08:45:06.119Z,9.68
2022-08-23T08:47:41.711Z,9.70
2022-08-23T08:50:17.684Z,10.20
2022-08-23T08:52:50.520Z,8.85
2022-08-23T08:55:23.387Z,9.57
2022-08-23T08:57:54.942Z,9.48
2022-08-23T09:00:26.351Z,8.95
2022-08-23T09:02:55.514Z,11.18
2022-08-23T09:05:26.920Z,10.65
2022-08-23T09:08:09.892Z,10.18
2022-08-23T09:10:58.162Z,10.13
2022-08-23T09:13:55.855Z,9.32
2022-08-23T09:16:39.460Z,10.32
2022-08-23T09:19:08.503Z,9.35
2022-08-23T09:21:45.091Z,9.43
2022-08-23T09:24:14.488Z,8.65
2022-08-23T09:26:43.809Z,9.15
2022-08-23T09:29:21.907Z,9.27
2022-08-23T09:31:52.976Z,15.38
2022-08-23T09:34:38.959Z,9.00
2022-08-23T09:37:12.419Z,9.65
2022-08-23T09:39:42.572Z,9.02
2022-08-23T09:42:28.619Z,9.23
2022-08-23T09:44:58.214Z,9.38
2022-08-23T09:47:34.171Z,8.95
2022-08-23T09:50:18.067Z,8.10
2022-08-23T09:52:48.996Z,7.15
2022-08-23T09:55:29.847Z,7.00
2022-08-23T09:57:58.175Z,6.30
2022-08-23T10:00:32.500Z,5.97
2022-08-23T10:03:23.414Z,6.53
2022-08-23T10:05:53.340Z,5.95
2022-08-23T10:08:27.330Z,5.72
2022-08-23T10:11:00.226Z,5.15
2022-08-23T10:13:28.734Z,5.13
2022-08-23T10:16:09.542Z,4.40
2022-08-23T10:18:52.250Z,4.55
2022-08-23T10:21:25.319Z,4.95
2022-08-23T10:24:09.982Z,4.97
2022-08-23T10:26:55.976Z,4.82
2022-08-23T10:29:37.746Z,4.45
2022-08-23T10:32:17.490Z,4.05
2022-08-23T10:35:02.212Z,4.90
2022-08-23T10:37:43.696Z,4.10
2022-08-23T10:40:20.066Z,4.50
2022-08-23T10:42:58.704Z,5.07
2022-08-23T10:45:29.839Z,4.60
2022-08-23T10:48:16.243Z,4.30
2022-08-23T10:50:55.863Z,4.80
2022-08-23T10:53:29.692Z,4.80
2022-08-23T10:56:05.909Z,4.65
2022-08-23T10:58:41.117Z,4.15
2022-08-23T11:01:10.548Z,4.90
2022-08-23T11:03:46.110Z,4.90
2022-08-23T11:06:46.621Z,4.68
2022-08-23T11:09:51.971Z,4.63
2022-08-23T11:12:25.026Z,4.80
2022-08-23T11:15:12.345Z,5.00
2022-08-23T11:17:56.288Z,4.32
2022-08-23T11:20:58.009Z,4.80
2022-08-23T11:23:53.826Z,4.88
2022-08-23T11:27:07.615Z,4.60
2022-08-23T11:29:43.548Z,5.07
2022-08-23T11:32:30.109Z,4.70
2022-08-23T11:35:05.817Z,4.70
2022-08-23T11:37:50.057Z,4.63
2022-08-23T11:40:55.859Z,4.38
2022-08-23T11:43:31.620Z,4.38
2022-08-23T11:46:37.315Z,3.97
2022-08-23T11:49:33.480Z,4.10
2022-08-23T11:52:10.916Z,4.32
2022-08-23T11:54:57.119Z,4.25
2022-08-23T11:57:52.637Z,4.00
2022-08-23T12:00:28.651Z,4.07
2022-08-23T12:03:04.104Z,4.55
2022-08-23T12:05:58.848Z,4.13
2022-08-23T12:08:47.736Z,4.18
2022-08-23T12:11:17.368Z,4.03
2022-08-23T12:13:56.886Z,4.43
2022-08-23T12:16:36.309Z,4.43
2022-08-23T12:19:13.535Z,4.82
2022-08-23T12:21:46.988Z,4.55
2022-08-23T12:24:25.216Z,5.22
2022-08-23T12:27:12.784Z,5.00
2022-08-23T12:29:58.845Z,5.10
2022-08-23T12:32:37.705Z,4.90
2022-08-23T12:35:28.665Z,4.95
2022-08-23T12:38:04.015Z,5.22
2022-08-23T12:40:36.153Z,4.85
2022-08-23T12:43:11.829Z,5.07
2022-08-23T12:45:50.685Z,5.38
2022-08-23T12:48:21.935Z,4.40
2022-08-23T12:50:55.368Z,4.70
2022-08-23T12:53:28.768Z,5.82
2022-08-23T12:56:02.616Z,5.40
2022-08-23T12:58:33.829Z,5.15
2022-08-23T13:01:06.412Z,5.32
2022-08-23T13:03:38.748Z,5.00
2022-08-23T13:06:10.707Z,5.10
2022-08-23T13:08:42.786Z,4.97
2022-08-23T13:11:14.045Z,4.95
2022-08-23T13:13:44.011Z,5.45
2022-08-23T13:16:27.978Z,5.10
2022-08-23T13:18:57.427Z,5.70
2022-08-23T13:21:31.869Z,5.57
2022-08-23T13:24:38.549Z,4.90
2022-08-23T13:27:22.857Z,5.45
2022-08-23T13:29:53.651Z,5.15
2022-08-23T13:32:36.579Z,5.45
2022-08-23T13:35:32.340Z,5.13
2022-08-23T13:38:11.362Z,5.20
2022-08-23T13:40:46.230Z,5.43
2022-08-23T13:43:20.991Z,5.40
2022-08-23T13:45:51.953Z,6.18
2022-08-23T13:48:24.776Z,5.47
2022-08-23T13:50:53.398Z,5.72
2022-08-23T13:53:22.357Z,5.25
2022-08-23T13:55:53.714Z,5.63
2022-08-23T13:58:28.812Z,5.57
2022-08-23T14:00:58.829Z,5.65
2022-08-23T14:03:29.578Z,5.60
2022-08-23T14:05:57.566Z,6.13
2022-08-23T14:08:25.754Z,6.40
2022-08-23T14:10:53.926Z,6.43
2022-08-23T14:13:25.363Z,6.60
2022-08-23T14:15:56.576Z,6.88
2022-08-23T14:18:28.633Z,6.18
2022-08-23T14:20:57.111Z,6.40
2022-08-23T14:23:25.267Z,6.65
2022-08-23T14:25:56.629Z,6.30
2022-08-23T14:28:31.290Z,6.35
2022-08-23T14:30:59.508Z,7.03
2022-08-23T14:33:28.945Z,6.53
2022-08-23T14:35:57.309Z,6.25
2022-08-23T14:38:25.639Z,6.07
2022-08-23T14:40:59.072Z,6.28
2022-08-23T14:43:28.422Z,6.10
2022-08-23T14:45:57.351Z,6.20
2022-08-23T14:48:25.878Z,6.03
2022-08-23T14:50:56.237Z,5.85
2022-08-23T14:53:26.669Z,6.35
2022-08-23T14:56:19.976Z,6.20
2022-08-23T14:58:42.982Z,6.30
2022-08-23T15:01:12.563Z,6.60
2022-08-23T15:03:41.845Z,6.25
2022-08-23T15:06:11.981Z,6.72
2022-08-23T15:08:40.753Z,6.88
2022-08-23T15:14:00.373Z,6.78
2022-08-23T15:16:29.617Z,6.55
2022-08-23T15:18:59.806Z,6.70
2022-08-23T15:21:29.345Z,6.55
2022-08-23T15:23:57.357Z,6.80
2022-08-23T15:26:27.312Z,6.45
2022-08-23T15:28:55.585Z,6.15
2022-08-23T15:31:23.977Z,6.55
2022-08-23T15:33:52.085Z,6.80
2022-08-23T15:36:20.732Z,7.30
2022-08-23T15:38:50.960Z,6.55
2022-08-23T15:41:21.632Z,6.53
2022-08-23T15:43:49.784Z,7.00
2022-08-23T15:46:21.454Z,6.53
2022-08-23T15:48:54.284Z,7.43
2022-08-23T15:51:22.336Z,7.13
2022-08-23T15:53:52.236Z,7.57
2022-08-23T15:56:23.243Z,7.80
2022-08-23T15:58:53.581Z,7.43
2022-08-23T16:01:24.619Z,7.15
2022-08-23T16:03:53.282Z,7.40
2022-08-23T16:06:21.966Z,7.78
2022-08-23T16:08:53.961Z,7.78
2022-08-23T16:11:23.081Z,7.57
2022-08-23T16:13:55.173Z,7.68
2022-08-23T16:16:25.934Z,7.78
2022-08-23T16:18:54.933Z,7.50
2022-08-23T16:21:25.207Z,7.05
2022-08-23T16:23:55.392Z,7.68
2022-08-23T16:26:32.356Z,8.30
2022-08-23T16:29:05.693Z,7.93
2022-08-23T16:31:39.364Z,7.70
2022-08-23T16:34:10.037Z,7.18
2022-08-23T16:36:39.581Z,7.47
2022-08-23T16:39:10.250Z,8.15
2022-08-23T16:41:38.553Z,7.57
2022-08-23T16:44:07.481Z,6.80
2022-08-23T16:46:36.909Z,6.72
2022-08-23T16:49:05.308Z,7.20
2022-08-23T16:51:34.000Z,6.70
2022-08-23T16:54:03.191Z,7.22
2022-08-23T16:56:34.108Z,7.07
2022-08-23T16:59:03.213Z,6.82
2022-08-23T17:01:43.358Z,6.78
2022-08-23T17:04:12.596Z,7.22
2022-08-23T17:06:40.876Z,7.20
2022-08-23T17:09:08.928Z,7.07
2022-08-23T17:11:38.428Z,6.60
2022-08-23T17:14:06.427Z,7.00
2022-08-23T17:16:35.130Z,8.10
2022-08-23T17:19:03.308Z,6.97
2022-08-23T17:21:31.448Z,7.07
2022-08-23T17:23:59.513Z,6.72
2022-08-23T17:26:27.681Z,6.63
2022-08-23T17:28:57.518Z,6.90
2022-08-23T17:31:27.036Z,7.38
2022-08-23T17:33:55.440Z,6.88
2022-08-23T17:36:34.004Z,6.70
2022-08-23T17:39:05.195Z,6.20
2022-08-23T17:41:35.250Z,5.50
2022-08-23T17:44:05.304Z,6.22
2022-08-23T17:46:35.769Z,5.15
2022-08-23T17:49:03.963Z,5.32
2022-08-23T17:51:32.464Z,4.88
2022-08-23T17:54:00.587Z,4.53
2022-08-23T17:56:28.639Z,4.82
2022-08-23T17:58:56.961Z,4.60
2022-08-23T18:01:27.326Z,4.00
2022-08-23T18:03:55.417Z,3.88
2022-08-23T18:06:23.831Z,3.95
2022-08-23T18:08:51.807Z,3.75
2022-08-23T18:11:19.940Z,3.88
2022-08-23T18:13:48.584Z,3.40
2022-08-23T18:16:16.934Z,4.10
2022-08-23T18:18:46.361Z,3.63
2022-08-23T18:21:14.375Z,3.63
2022-08-23T18:23:42.970Z,4.18
2022-08-23T18:26:34.637Z,3.85
2022-08-23T18:29:01.656Z,3.75
2022-08-23T18:31:29.998Z,4.18
2022-08-23T18:34:00.602Z,4.30
2022-08-23T18:36:29.990Z,4.45
2022-08-23T18:38:58.278Z,4.25
2022-08-23T18:41:26.280Z,3.80
2022-08-23T18:43:54.655Z,4.40
2022-08-23T18:46:23.248Z,4.15
2022-08-23T18:48:53.735Z,4.85
2022-08-23T18:51:23.586Z,5.50
2022-08-23T18:53:52.667Z,4.93
2022-08-23T18:56:20.678Z,4.97
2022-08-23T18:58:48.910Z,5.10
2022-08-23T19:01:28.056Z,4.50
2022-08-23T19:03:59.421Z,4.78
2022-08-23T19:06:29.269Z,4.30
2022-08-23T19:08:57.351Z,4.50
2022-08-23T19:11:26.170Z,4.72
2022-08-23T19:13:54.590Z,4.20
2022-08-23T19:16:23.317Z,4.13
2022-08-23T19:18:52.374Z,4.05
2022-08-23T19:21:23.267Z,4.20
2022-08-23T19:23:55.433Z,4.18
2022-08-23T19:26:26.202Z,4.32
2022-08-23T19:28:55.189Z,4.15
2022-08-23T19:31:25.123Z,4.18
2022-08-23T19:33:53.268Z,4.07
2022-08-23T19:36:44.698Z,4.22
2022-08-23T19:39:11.238Z,4.10
2022-08-23T19:41:39.838Z,4.50
2022-08-23T19:44:08.822Z,4.20
2022-08-23T19:46:41.176Z,4.07
2022-08-23T19:49:11.632Z,3.92
2022-08-23T19:51:40.324Z,4.00
2022-08-23T19:54:12.403Z,4.38
2022-08-23T19:56:43.299Z,3.97
2022-08-23T19:59:14.796Z,3.30
2022-08-23T20:01:43.223Z,4.00
2022-08-23T20:04:12.688Z,4.18
2022-08-23T20:06:40.799Z,3.88
2022-08-23T20:09:11.294Z,3.85
2022-08-23T20:11:39.652Z,3.75
2022-08-23T20:14:10.014Z,4.00
2022-08-23T20:16:41.473Z,3.75
2022-08-23T20:19:10.338Z,3.70
2022-08-23T20:21:38.593Z,4.10
2022-08-23T20:24:06.937Z,4.72
2022-08-23T20:26:40.647Z,4.85
2022-08-23T20:29:11.153Z,4.28
2022-08-23T20:31:41.329Z,4.68
2022-08-23T20:34:10.382Z,4.70
2022-08-23T20:36:40.390Z,4.07
2022-08-23T20:39:08.748Z,3.83
2022-08-23T20:41:39.829Z,4.57
2022-08-23T20:44:09.617Z,4.20
2022-08-23T20:46:37.980Z,4.90
2022-08-23T20:49:06.822Z,5.00
2022-08-23T20:51:36.605Z,4.68
2022-08-23T20:54:05.291Z,4.80
2022-08-23T20:56:33.301Z,3.97
2022-08-23T20:59:02.961Z,4.60
2022-08-23T21:01:31.513Z,4.75
2022-08-23T21:04:00.143Z,4.82
2022-08-23T21:06:31.318Z,4.95
2022-08-23T21:09:01.313Z,4.45
2022-08-23T21:11:29.908Z,4.43
2022-08-23T21:13:58.693Z,4.30
2022-08-23T21:16:28.229Z,4.47
2022-08-23T21:18:56.888Z,5.57
2022-08-23T21:21:25.365Z,4.85
2022-08-23T21:23:54.052Z,4.32
2022-08-23T21:26:23.377Z,4.80
2022-08-23T21:28:51.784Z,4.90
2022-08-23T21:31:23.228Z,5.00
2022-08-23T21:33:53.507Z,5.20
2022-08-23T21:36:23.192Z,5.07
2022-08-23T21:38:52.550Z,5.15
2022-08-23T21:41:34.059Z,4.43
2022-08-23T21:44:03.196Z,4.10
2022-08-23T21:46:31.336Z,5.05
2022-08-23T21:49:01.683Z,4.80
2022-08-23T21:51:29.993Z,4.78
2022-08-23T21:53:58.481Z,4.47
2022-08-23T21:56:28.239Z,5.07
2022-08-23T21:58:59.200Z,5.20
2022-08-23T22:01:27.518Z,4.90
2022-08-23T22:03:57.169Z,4.50
2022-08-23T22:06:27.361Z,4.80
2022-08-23T22:08:55.681Z,4.50
2022-08-23T22:11:24.395Z,5.30
2022-08-23T22:13:53.820Z,4.90
2022-08-23T22:16:22.448Z,4.90
2022-08-23T22:18:53.840Z,5.30
2022-08-23T22:21:22.691Z,4.93
2022-08-23T22:23:52.745Z,5.07
2022-08-23T22:26:20.797Z,4.93
2022-08-23T22:28:48.864Z,5.47
2022-08-23T22:31:16.965Z,5.10
2022-08-23T22:33:46.254Z,5.13
2022-08-23T22:36:18.951Z,5.10
2022-08-23T22:38:47.979Z,5.30
2022-08-23T22:41:20.262Z,5.40
2022-08-23T22:43:48.567Z,5.00
2022-08-23T22:46:16.809Z,4.90
2022-08-23T22:48:44.959Z,5.80
2022-08-23T22:51:14.999Z,5.53
2022-08-23T22:53:46.338Z,5.65
2022-08-23T22:56:17.927Z,5.65
2022-08-23T22:58:47.172Z,5.60
2022-08-23T23:01:20.558Z,5.28
2022-08-23T23:03:49.630Z,6.25
2022-08-23T23:06:19.850Z,6.05
2022-08-23T23:08:47.871Z,6.13
2022-08-23T23:11:18.371Z,5.90
2022-08-23T23:13:46.791Z,6.60
2022-08-23T23:16:18.019Z,7.40
2022-08-23T23:19:08.056Z,6.13
2022-08-23T23:21:37.459Z,6.40
2022-08-23T23:24:06.406Z,6.90
2022-08-23T23:26:36.115Z,6.32
2022-08-23T23:29:04.754Z,6.50
2022-08-23T23:31:32.741Z,7.00
2022-08-23T23:34:00.738Z,6.63
2022-08-23T23:36:29.206Z,6.40
2022-08-23T23:38:57.558Z,6.20
2022-08-23T23:41:25.795Z,6.10
2022-08-23T23:43:55.106Z,6.13
2022-08-23T23:46:25.176Z,6.83
2022-08-23T23:48:54.025Z,7.40
2022-08-23T23:51:24.274Z,6.40
2022-08-23T23:53:53.035Z,6.67
2022-08-23T23:56:23.761Z,6.80
2022-08-23T23:58:54.771Z,6.63
